createdAt,value
2024-03-16T00:05:20.161Z,10.44
2024-03-16T00:15:23.418Z,10.51
2024-03-16T00:25:27.476Z,10.51
2024-03-16T00:35:31.161Z,10.49
2024-03-16T00:45:34.356Z,10.50
2024-03-16T00:55:39.102Z,10.57
2024-03-16T01:05:42.242Z,10.63
2024-03-16T01:15:45.816Z,10.63
2024-03-16T01:25:49.139Z,10.64
2024-03-16T01:35:53.041Z,10.66
2024-03-16T01:45:56.198Z,10.72
2024-03-16T01:55:59.332Z,10.71
2024-03-16T02:06:02.394Z,10.71
2024-03-16T02:16:06.060Z,10.67
2024-03-16T02:26:09.625Z,10.44
2024-03-16T02:36:12.922Z,10.54
2024-03-16T02:46:16.211Z,10.51
2024-03-16T02:56:20.280Z,10.53
2024-03-16T03:06:23.908Z,10.67
2024-03-16T03:16:27.091Z,10.71
2024-03-16T03:26:31.692Z,10.60
2024-03-16T03:36:35.306Z,10.63
2024-03-16T03:46:51.317Z,10.66
2024-03-16T03:56:54.865Z,10.67
2024-03-16T04:06:58.095Z,10.37
2024-03-16T04:17:01.212Z,10.61
2024-03-16T04:27:04.622Z,10.57
2024-03-16T04:37:08.044Z,10.55
2024-03-16T04:47:11.283Z,10.61
2024-03-16T04:57:14.592Z,10.63
2024-03-16T05:07:18.073Z,10.76
2024-03-16T05:17:21.179Z,10.75
2024-03-16T05:27:24.224Z,10.62
2024-03-16T05:37:31.404Z,10.72
2024-03-16T05:47:35.112Z,10.76
2024-03-16T05:57:38.264Z,10.71
2024-03-16T06:07:43.954Z,10.69
2024-03-16T06:17:47.501Z,10.48
2024-03-16T06:27:51.604Z,10.40
2024-03-16T06:37:54.659Z,10.35
2024-03-16T06:47:58.724Z,10.34
2024-03-16T06:58:01.836Z,10.49
2024-03-16T07:08:05.635Z,10.43
2024-03-16T07:18:10.059Z,10.25
2024-03-16T07:28:15.068Z,9.66
2024-03-16T07:38:18.792Z,9.70
2024-03-16T07:48:22.898Z,9.53
2024-03-16T07:58:25.915Z,9.65
2024-03-16T08:08:29.189Z,9.74
2024-03-16T08:18:32.272Z,9.79
2024-03-16T08:28:35.664Z,9.44
2024-03-16T08:38:38.725Z,9.46
2024-03-16T08:48:41.936Z,9.52
2024-03-16T08:58:47.484Z,9.55
2024-03-16T09:08:51.972Z,9.63
2024-03-16T09:18:55.447Z,9.55
2024-03-16T09:28:58.633Z,9.88
2024-03-16T09:39:01.784Z,9.73
